Time;durP1;ratioP1;P1;durP2;ratioP2;P2;SDS_P1;SDS_P2;PMS_P1;PMS_P2;Temp;Humidity;BMP_temperature;BMP_pressure;BME280_temperature;BME280_humidity;BME280_pressure;Samples;Min_cycle;Max_cycle;Signal;HPM_P1;HPM_P2
2021/05/12 00:00:25;;;;;;;12.73;9.03;;;;;;;12.16;100.00;100004.94;5012250;28;20776;-75
2021/05/12 00:02:53;;;;;;;16.63;9.33;;;;;;;12.07;100.00;100009.44;5011962;28;20246;-75
2021/05/12 00:05:21;;;;;;;13.00;9.57;;;;;;;12.12;100.00;100006.63;4996453;28;20199;-75
2021/05/12 00:07:46;;;;;;;12.87;9.53;;;;;;;11.90;100.00;100002.09;5013193;28;20244;-75
2021/05/12 00:10:17;;;;;;;15.23;9.80;;;;;;;12.16;100.00;100004.09;4996618;28;20236;-75
2021/05/12 00:12:45;;;;;;;12.10;8.97;;;;;;;11.97;100.00;100004.16;4980692;28;20184;-74
2021/05/12 00:15:13;;;;;;;15.03;9.50;;;;;;;12.09;100.00;100004.50;5012260;28;20280;-74
2021/05/12 00:17:39;;;;;;;16.97;9.57;;;;;;;12.15;100.00;99997.84;4996637;28;20188;-75
2021/05/12 00:20:06;;;;;;;14.13;9.77;;;;;;;12.25;100.00;100005.84;4996621;28;20625;-74
2021/05/12 00:22:50;;;;;;;15.03;9.43;;;;;;;12.28;100.00;100018.88;5008301;28;20208;-75
2021/05/12 00:25:23;;;;;;;16.60;9.20;;;;;;;12.21;100.00;100018.44;4996586;28;20320;-77
2021/05/12 00:27:48;;;;;;;17.13;8.70;;;;;;;12.26;100.00;100026.53;5013287;28;20299;-74
2021/05/12 00:30:18;;;;;;;13.83;9.03;;;;;;;12.15;100.00;100018.84;4979816;28;20678;-75
2021/05/12 00:32:49;;;;;;;13.40;9.20;;;;;;;12.25;100.00;100008.56;5014330;28;20180;-75
2021/05/12 00:35:14;;;;;;;15.70;8.77;;;;;;;12.22;100.00;100013.81;5032912;28;20222;-74
2021/05/12 00:37:42;;;;;;;14.30;8.73;;;;;;;12.13;100.00;100012.88;5016430;28;20275;-76
2021/05/12 00:40:12;;;;;;;12.20;8.83;;;;;;;12.22;100.00;100013.81;5016375;28;20207;-75
2021/05/12 00:42:43;;;;;;;13.33;8.90;;;;;;;12.15;100.00;100008.75;4997534;28;20180;-75
2021/05/12 00:45:12;;;;;;;12.33;8.73;;;;;;;12.22;100.00;100003.75;5012607;28;20212;-74
2021/05/12 00:47:38;;;;;;;13.03;7.97;;;;;;;12.23;100.00;100021.69;5012654;28;20912;-75
2021/05/12 00:50:07;;;;;;;11.83;8.03;;;;;;;12.14;100.00;100026.22;5029696;28;20239;-76
2021/05/12 00:52:33;;;;;;;11.77;8.03;;;;;;;12.21;100.00;100020.38;5007891;28;20594;-75
2021/05/12 00:55:01;;;;;;;11.10;7.60;;;;;;;12.13;100.00;100038.19;5009201;28;20177;-75
2021/05/12 00:57:26;;;;;;;15.63;8.10;;;;;;;12.21;100.00;100031.25;4995291;28;20307;-77
2021/05/12 00:59:53;;;;;;;11.83;8.30;;;;;;;12.17;100.00;100044.66;4996049;28;20294;-74
2021/05/12 01:02:21;;;;;;;11.80;7.43;;;;;;;12.20;100.00;100048.72;5027483;28;20705;-75
2021/05/12 01:04:49;;;;;;;13.63;8.00;;;;;;;12.11;100.00;100040.41;5014188;28;20276;-75
2021/05/12 01:07:17;;;;;;;15.30;7.43;;;;;;;12.16;100.00;100037.59;5014274;28;20227;-75
2021/05/12 01:09:45;;;;;;;12.30;7.80;;;;;;;12.21;100.00;100040.22;5016152;28;20681;-74
2021/05/12 01:12:11;;;;;;;10.37;7.40;;;;;;;12.20;100.00;100033.19;5014660;28;20277;-75
2021/05/12 01:14:39;;;;;;;9.27;7.17;;;;;;;12.21;100.00;100039.44;4999952;28;20658;-76
2021/05/12 01:17:04;;;;;;;9.97;7.20;;;;;;;11.96;100.00;100040.66;5031946;28;20224;-76
2021/05/12 01:19:30;;;;;;;11.93;7.47;;;;;;;12.10;100.00;100041.50;5004518;28;20209;-76
2021/05/12 01:21:58;;;;;;;10.93;7.10;;;;;;;12.19;100.00;100042.44;5018848;28;20225;-74
2021/05/12 01:24:26;;;;;;;11.97;7.40;;;;;;;11.91;100.00;100062.50;5013240;28;20195;-75
2021/05/12 01:26:51;;;;;;;15.13;7.50;;;;;;;12.10;100.00;100055.09;5031522;28;20228;-75
2021/05/12 01:29:17;;;;;;;10.23;7.43;;;;;;;12.08;100.00;100057.31;5031581;28;20211;-75
2021/05/12 01:31:43;;;;;;;10.20;7.37;;;;;;;12.25;100.00;100063.03;5026985;28;20227;-75
2021/05/12 01:34:13;;;;;;;10.40;7.27;;;;;;;12.12;100.00;100063.78;5015362;28;20681;-75
2021/05/12 01:36:41;;;;;;;8.97;7.87;;;;;;;12.14;100.00;100055.31;5015044;28;20666;-75
2021/05/12 01:39:12;;;;;;;10.77;7.57;;;;;;;11.91;100.00;100067.13;5000498;28;20817;-74
2021/05/12 01:41:40;;;;;;;11.93;7.30;;;;;;;11.94;100.00;100061.06;5014644;28;20254;-75
2021/05/12 01:44:10;;;;;;;7.97;6.93;;;;;;;12.08;100.00;100049.16;4999581;28;20180;-76
2021/05/12 01:46:42;;;;;;;11.20;7.63;;;;;;;12.24;100.00;100050.53;5031219;28;20228;-75
2021/05/12 01:49:08;;;;;;;10.10;7.50;;;;;;;12.17;100.00;100050.09;5015144;28;20244;-75
2021/05/12 01:51:34;;;;;;;10.83;8.10;;;;;;;12.13;100.00;100054.53;5014113;28;20303;-75
2021/05/12 01:54:00;;;;;;;9.00;7.40;;;;;;;12.08;100.00;100045.63;5014768;28;20180;-75
2021/05/12 01:56:27;;;;;;;12.67;7.50;;;;;;;11.99;100.00;100052.84;5014931;28;20224;-75
2021/05/12 01:58:53;;;;;;;11.70;7.33;;;;;;;12.06;100.00;100051.38;5015081;28;20330;-75
2021/05/12 02:01:21;;;;;;;12.90;8.00;;;;;;;12.16;100.00;100053.13;5014812;28;20227;-75
2021/05/12 02:03:47;;;;;;;13.23;8.30;;;;;;;12.14;100.00;100053.44;5030873;28;20200;-75
2021/05/12 02:06:13;;;;;;;12.90;7.80;;;;;;;12.15;100.00;100046.88;5014513;28;20224;-75
2021/05/12 02:08:42;;;;;;;9.67;7.27;;;;;;;12.20;100.00;100060.41;4999837;28;20219;-75
2021/05/12 02:11:10;;;;;;;10.97;7.93;;;;;;;12.28;100.00;100067.88;5013787;28;20232;-75
2021/05/12 02:13:36;;;;;;;9.50;7.70;;;;;;;12.27;100.00;100063.56;5030444;28;20184;-75
2021/05/12 02:16:06;;;;;;;12.53;8.33;;;;;;;12.31;100.00;100062.66;5031972;28;20601;-76
2021/05/12 02:18:35;;;;;;;13.37;8.27;;;;;;;12.22;100.00;100058.19;4999741;28;20185;-74
2021/05/12 02:21:01;;;;;;;12.70;8.00;;;;;;;12.30;100.00;100054.78;4997823;28;20222;-75
2021/05/12 02:23:28;;;;;;;11.30;7.70;;;;;;;12.13;100.00;100049.09;5030454;28;20192;-75
2021/05/12 02:25:54;;;;;;;12.47;8.13;;;;;;;12.07;100.00;100028.50;4997859;28;20568;-76
2021/05/12 02:28:21;;;;;;;10.83;7.57;;;;;;;11.88;100.00;100040.50;5011135;28;20220;-75
2021/05/12 02:30:47;;;;;;;12.17;7.80;;;;;;;11.92;100.00;100041.53;4997933;28;20216;-76
2021/05/12 02:33:16;;;;;;;10.60;7.97;;;;;;;11.95;100.00;100030.84;4997748;28;20172;-76
2021/05/12 02:35:46;;;;;;;10.67;7.67;;;;;;;11.92;100.00;100031.47;5014421;28;20226;-76
2021/05/12 02:38:12;;;;;;;10.93;7.83;;;;;;;12.03;100.00;100032.91;4982185;28;20204;-76
2021/05/12 02:40:40;;;;;;;12.37;7.70;;;;;;;11.99;100.00;100037.31;4997139;28;20247;-75
2021/05/12 02:43:05;;;;;;;10.47;7.83;;;;;;;12.09;100.00;100036.38;4997573;28;20222;-76
2021/05/12 02:45:36;;;;;;;11.37;7.93;;;;;;;12.13;100.00;100035.47;5026650;28;20227;-75
2021/05/12 02:48:05;;;;;;;13.00;8.70;;;;;;;12.02;100.00;100042.19;5032982;28;20212;-76
2021/05/12 02:50:39;;;;;;;15.70;8.63;;;;;;;11.97;100.00;100044.16;5017041;28;20315;-75
2021/05/12 02:53:05;;;;;;;9.87;8.40;;;;;;;11.97;100.00;100050.41;4992025;28;20611;-76
2021/05/12 02:55:31;;;;;;;9.43;8.07;;;;;;;11.99;100.00;100044.69;4989485;28;20228;-75
2021/05/12 02:57:57;;;;;;;11.90;8.33;;;;;;;12.02;100.00;100046.81;5021144;28;20192;-76
2021/05/12 03:00:26;;;;;;;13.77;8.00;;;;;;;12.07;100.00;100046.75;5015337;28;20258;-76
2021/05/12 03:02:54;;;;;;;13.73;8.40;;;;;;;11.97;100.00;100052.34;4999548;28;20173;-76
2021/05/12 03:05:22;;;;;;;13.23;8.17;;;;;;;12.04;100.00;100045.41;5031193;28;20721;-76
2021/05/12 03:07:50;;;;;;;12.90;8.50;;;;;;;12.05;100.00;100047.03;5014732;28;20943;-77
2021/05/12 03:10:23;;;;;;;13.47;9.07;;;;;;;11.86;100.00;100053.59;4983898;28;20282;-75
2021/05/12 03:12:54;;;;;;;10.17;8.77;;;;;;;11.81;100.00;100061.03;5000458;28;20187;-75
2021/05/12 03:15:21;;;;;;;12.23;8.77;;;;;;;11.91;100.00;100060.88;5011423;28;20189;-75
2021/05/12 03:17:53;;;;;;;15.33;8.90;;;;;;;11.84;100.00;100055.00;4984395;28;20180;-76
2021/05/12 03:20:23;;;;;;;12.67;9.20;;;;;;;11.87;100.00;100062.56;5015300;28;20273;-75
2021/05/12 03:22:54;;;;;;;14.33;9.90;;;;;;;11.92;100.00;100053.25;5031622;28;20191;-76
2021/05/12 03:25:24;;;;;;;14.60;9.97;;;;;;;11.84;100.00;100047.63;5011600;28;20227;-76
2021/05/12 03:27:50;;;;;;;15.17;10.60;;;;;;;11.82;100.00;100059.94;4996549;28;20224;-77
2021/05/12 03:30:28;;;;;;;15.27;10.77;;;;;;;11.89;100.00;100058.47;4984535;28;20285;-76
2021/05/12 03:32:54;;;;;;;15.73;10.93;;;;;;;11.84;100.00;100063.97;5017544;28;20200;-76
2021/05/12 03:35:20;;;;;;;14.83;11.47;;;;;;;11.84;100.00;100068.59;5030185;28;20228;-76
2021/05/12 03:37:48;;;;;;;15.93;10.77;;;;;;;12.05;100.00;100063.38;4997502;28;20181;-76
2021/05/12 03:40:13;;;;;;;15.67;11.00;;;;;;;11.88;100.00;100069.63;5015380;28;20217;-75
2021/05/12 03:42:39;;;;;;;14.53;11.53;;;;;;;11.98;100.00;100078.47;4976303;28;20200;-75
2021/05/12 03:45:08;;;;;;;17.10;11.20;;;;;;;12.00;100.00;100073.53;5009450;28;20650;-76
2021/05/12 03:47:35;;;;;;;16.53;11.67;;;;;;;11.97;100.00;100077.63;4994122;28;20211;-75
2021/05/12 03:50:03;;;;;;;16.13;11.87;;;;;;;12.07;100.00;100077.50;4977975;28;20201;-75
2021/05/12 03:52:30;;;;;;;15.93;11.80;;;;;;;12.03;100.00;100084.63;4993440;28;20228;-76
2021/05/12 03:54:58;;;;;;;16.27;12.17;;;;;;;12.01;100.00;100089.56;5010525;28;20189;-76
2021/05/12 03:57:27;;;;;;;14.20;12.23;;;;;;;12.14;100.00;100088.81;5009288;28;20212;-74
2021/05/12 03:59:52;;;;;;;15.10;11.40;;;;;;;12.01;100.00;100100.47;4976949;28;20201;-75
2021/05/12 04:02:18;;;;;;;17.33;11.60;;;;;;;12.00;100.00;100107.00;4976655;28;20630;-75
2021/05/12 04:04:44;;;;;;;18.33;11.77;;;;;;;12.00;100.00;100104.28;4994062;28;20177;-75
2021/05/12 04:07:14;;;;;;;16.63;12.67;;;;;;;12.05;100.00;100100.66;4993583;28;20224;-76
2021/05/12 04:09:41;;;;;;;17.00;11.77;;;;;;;12.07;100.00;100104.72;5011284;28;20201;-75
2021/05/12 04:12:09;;;;;;;15.30;11.57;;;;;;;12.17;100.00;100110.00;4992365;28;20240;-76
2021/05/12 04:14:39;;;;;;;17.00;12.10;;;;;;;12.08;100.00;100106.31;4993705;28;20243;-75
2021/05/12 04:17:07;;;;;;;18.10;12.20;;;;;;;12.06;100.00;100113.16;4993811;28;20293;-76
2021/05/12 04:19:35;;;;;;;16.33;12.17;;;;;;;11.96;100.00;100103.25;4993719;28;20212;-75
2021/05/12 04:22:03;;;;;;;15.90;12.03;;;;;;;11.97;100.00;100110.28;4992840;28;20258;-77
2021/05/12 04:24:29;;;;;;;18.30;12.43;;;;;;;12.13;100.00;100108.16;4994205;28;20869;-74
2021/05/12 04:26:57;;;;;;;17.77;12.13;;;;;;;12.24;100.00;100099.53;4993520;28;20232;-76
2021/05/12 04:29:23;;;;;;;15.53;12.23;;;;;;;11.97;100.00;100104.84;4977745;28;20296;-75
2021/05/12 04:31:48;;;;;;;16.90;12.63;;;;;;;12.11;100.00;100100.28;4992139;28;20225;-76
2021/05/12 04:34:14;;;;;;;23.73;18.27;;;;;;;12.12;100.00;100101.91;4993675;28;20185;-75
2021/05/12 04:36:44;;;;;;;18.77;13.40;;;;;;;12.10;100.00;100098.66;5009613;28;20216;-76
2021/05/12 04:39:10;;;;;;;20.57;15.77;;;;;;;12.27;100.00;100092.69;4981113;28;20219;-75
2021/05/12 04:41:43;;;;;;;16.30;12.30;;;;;;;12.17;100.00;100099.09;4997725;28;20231;-75
2021/05/12 04:44:11;;;;;;;15.17;12.37;;;;;;;12.28;100.00;100094.31;4999273;28;20215;-76
2021/05/12 04:46:38;;;;;;;20.43;12.73;;;;;;;12.25;100.00;100101.16;4997495;28;20228;-75
2021/05/12 04:49:06;;;;;;;16.67;12.37;;;;;;;12.33;100.00;100093.13;4998401;28;20208;-76
2021/05/12 04:51:35;;;;;;;16.97;12.37;;;;;;;12.08;100.00;100105.50;4997834;28;20221;-75
2021/05/12 04:54:06;;;;;;;18.20;12.30;;;;;;;12.07;100.00;100102.00;4997311;28;20191;-75
2021/05/12 04:56:35;;;;;;;16.20;12.23;;;;;;;12.14;100.00;100099.72;4982051;28;20221;-76
2021/05/12 04:59:01;;;;;;;17.53;12.40;;;;;;;12.22;100.00;100095.50;4998242;28;20208;-76
2021/05/12 05:01:30;;;;;;;19.07;13.00;;;;;;;12.25;100.00;100106.59;4997336;28;20327;-73
2021/05/12 05:04:02;;;;;;;16.57;12.30;;;;;;;12.15;100.00;100105.97;5013805;28;20228;-74
2021/05/12 05:06:28;;;;;;;15.50;12.80;;;;;;;12.25;100.00;100103.88;5005547;28;20221;-75
2021/05/12 05:08:58;;;;;;;18.27;12.90;;;;;;;12.23;100.00;100103.34;5015343;28;20220;-74
2021/05/12 05:11:26;;;;;;;18.03;13.40;;;;;;;12.29;100.00;100104.91;5013422;28;20225;-74
2021/05/12 05:13:56;;;;;;;17.27;13.07;;;;;;;12.18;100.00;100111.63;5012826;28;20585;-75
2021/05/12 05:16:22;;;;;;;38.80;32.43;;;;;;;12.35;100.00;100115.41;4992371;28;20220;-75
2021/05/12 05:18:50;;;;;;;37.27;27.60;;;;;;;12.19;100.00;100113.22;4985309;28;20214;-75
2021/05/12 05:21:15;;;;;;;19.43;14.17;;;;;;;12.30;100.00;100114.69;4997036;28;20225;-75
2021/05/12 05:23:43;;;;;;;18.93;14.67;;;;;;;12.29;100.00;100123.97;4961294;28;20181;-76
2021/05/12 05:26:09;;;;;;;17.47;14.83;;;;;;;12.24;100.00;100126.78;4976053;28;20720;-75
2021/05/12 05:28:35;;;;;;;19.53;14.93;;;;;;;12.42;100.00;100134.13;4992121;28;20240;-76
2021/05/12 05:31:03;;;;;;;22.53;15.67;;;;;;;12.36;100.00;100127.94;4995999;28;20229;-75
2021/05/12 05:33:50;;;;;;;21.47;15.90;;;;;;;12.28;100.00;100134.03;4981534;28;20212;-75
2021/05/12 05:36:38;;;;;;;23.27;16.53;;;;;;;12.65;100.00;100133.19;4980573;28;20298;-76
2021/05/12 05:39:22;;;;;;;23.77;16.13;;;;;;;12.60;100.00;100130.53;4966560;28;20312;-76
2021/05/12 05:42:08;;;;;;;23.07;17.00;;;;;;;12.66;100.00;100145.72;4977402;28;20945;-76
2021/05/12 05:44:52;;;;;;;21.40;16.00;;;;;;;12.92;100.00;100145.00;4981301;28;20372;-77
2021/05/12 05:47:37;;;;;;;22.57;16.23;;;;;;;12.83;100.00;100142.13;4995732;28;20224;-76
2021/05/12 05:50:21;;;;;;;20.07;16.37;;;;;;;12.67;100.00;100148.13;4995176;28;20233;-75
2021/05/12 05:53:05;;;;;;;24.77;17.27;;;;;;;12.45;100.00;100158.03;4987762;28;20279;-77
2021/05/12 05:55:50;;;;;;;22.27;16.60;;;;;;;12.70;100.00;100151.06;5013079;28;20228;-76
2021/05/12 05:58:39;;;;;;;21.03;16.43;;;;;;;12.95;100.00;100156.13;4986913;28;20240;-76
2021/05/12 06:01:25;;;;;;;19.20;16.17;;;;;;;13.10;100.00;100158.56;5010344;28;20355;-75
2021/05/12 06:03:53;;;;;;;21.10;16.37;;;;;;;13.09;100.00;100163.22;5012062;28;20196;-76
2021/05/12 06:06:37;;;;;;;18.63;15.67;;;;;;;13.00;100.00;100153.28;4998548;28;20291;-76
2021/05/12 06:09:26;;;;;;;20.73;16.43;;;;;;;13.06;100.00;100157.56;5012394;28;20223;-76
2021/05/12 06:12:13;;;;;;;20.67;15.00;;;;;;;13.43;100.00;100151.94;4998910;28;20718;-75
2021/05/12 06:14:57;;;;;;;19.53;15.37;;;;;;;13.15;100.00;100167.47;4999179;28;20246;-76
2021/05/12 06:17:44;;;;;;;18.80;15.37;;;;;;;13.20;100.00;100158.38;5013215;28;20218;-75
2021/05/12 06:20:30;;;;;;;17.23;13.80;;;;;;;13.16;100.00;100163.63;5011936;28;20318;-76
2021/05/12 06:23:14;;;;;;;15.70;13.50;;;;;;;13.22;100.00;100164.34;4998806;28;20227;-76
2021/05/12 06:25:59;;;;;;;18.93;14.93;;;;;;;13.05;100.00;100172.28;5012116;28;20227;-76
2021/05/12 06:28:43;;;;;;;16.67;13.13;;;;;;;13.39;100.00;100170.84;5012173;28;20227;-76
2021/05/12 06:31:27;;;;;;;14.20;12.40;;;;;;;13.14;100.00;100176.75;5017984;28;20235;-76
2021/05/12 06:34:14;;;;;;;14.37;12.30;;;;;;;13.35;100.00;100177.19;5017749;28;20200;-77
2021/05/12 06:36:59;;;;;;;17.07;12.23;;;;;;;13.75;100.00;100177.97;4997015;28;20270;-75
2021/05/12 06:39:43;;;;;;;14.37;12.57;;;;;;;13.93;100.00;100179.81;4994078;28;20222;-76
2021/05/12 06:42:09;;;;;;;16.63;11.00;;;;;;;13.80;100.00;100190.75;5011255;28;20656;-75
2021/05/12 06:44:37;;;;;;;15.30;11.77;;;;;;;13.82;100.00;100183.06;5011383;28;20181;-75
2021/05/12 06:47:03;;;;;;;14.00;10.63;;;;;;;14.18;100.00;100190.22;5010518;28;20617;-75
2021/05/12 06:49:29;;;;;;;17.83;10.90;;;;;;;14.07;100.00;100186.09;5011309;28;20208;-75
2021/05/12 06:51:57;;;;;;;11.47;10.23;;;;;;;14.20;100.00;100190.72;5010955;28;20958;-76
2021/05/12 06:54:25;;;;;;;14.13;10.07;;;;;;;14.21;100.00;100186.84;5011478;28;20223;-76
2021/05/12 06:56:53;;;;;;;11.80;10.13;;;;;;;14.03;100.00;100188.63;4994123;28;20259;-76
2021/05/12 06:59:21;;;;;;;11.80;10.50;;;;;;;13.95;100.00;100186.56;4994414;28;20620;-76
2021/05/12 07:01:49;;;;;;;10.70;9.60;;;;;;;14.13;100.00;100196.59;5005491;28;20307;-76
2021/05/12 07:04:17;;;;;;;11.03;9.70;;;;;;;13.83;100.00;100190.94;5008067;28;20659;-74
2021/05/12 07:06:43;;;;;;;11.63;9.00;;;;;;;13.86;100.00;100190.31;5009727;28;20232;-74
2021/05/12 07:09:08;;;;;;;10.53;8.20;;;;;;;13.78;100.00;100196.50;4978046;28;20193;-74
2021/05/12 07:11:34;;;;;;;10.80;8.60;;;;;;;13.90;100.00;100196.81;5009417;28;20600;-74
2021/05/12 07:14:03;;;;;;;11.63;8.40;;;;;;;13.93;100.00;100202.44;5009631;28;20276;-74
2021/05/12 07:16:28;;;;;;;12.17;7.77;;;;;;;13.61;100.00;100204.50;5011181;28;20336;-74
2021/05/12 07:18:54;;;;;;;11.30;8.17;;;;;;;13.53;100.00;100204.38;5011280;28;20210;-72
2021/05/12 07:21:20;;;;;;;9.87;7.20;;;;;;;13.55;100.00;100205.72;4993405;28;20710;-74
2021/05/12 07:23:48;;;;;;;9.27;7.30;;;;;;;13.47;100.00;100214.56;4978637;28;20189;-74
2021/05/12 07:26:16;;;;;;;11.57;7.87;;;;;;;13.87;100.00;100211.06;5012149;28;20243;-75
2021/05/12 07:28:42;;;;;;;10.50;7.00;;;;;;;13.69;100.00;100213.91;5010307;28;20201;-76
2021/05/12 07:31:08;;;;;;;10.67;7.60;;;;;;;14.01;100.00;100220.91;4993397;28;20315;-75
2021/05/12 07:33:36;;;;;;;11.80;6.93;;;;;;;13.91;100.00;100222.97;4979921;28;20243;-74
2021/05/12 07:36:02;;;;;;;9.37;6.93;;;;;;;13.61;100.00;100226.31;4999279;28;20224;-74
2021/05/12 07:38:30;;;;;;;10.13;6.73;;;;;;;13.87;100.00;100235.63;4993904;28;20232;-74
2021/05/12 07:40:59;;;;;;;11.13;6.70;;;;;;;13.94;100.00;100236.03;4977230;28;20316;-75
2021/05/12 07:43:24;;;;;;;11.93;7.63;;;;;;;14.20;100.00;100235.22;4993182;28;20280;-74
2021/05/12 07:45:50;;;;;;;11.17;6.70;;;;;;;14.04;100.00;100238.59;5006861;28;20216;-77
2021/05/12 07:48:18;;;;;;;9.93;6.93;;;;;;;14.09;100.00;100246.69;4987414;28;20204;-78
2021/05/12 07:50:45;;;;;;;10.13;6.50;;;;;;;13.85;100.00;100254.25;4994379;28;20213;-75
2021/05/12 07:53:11;;;;;;;9.87;6.30;;;;;;;13.94;100.00;100244.22;4956248;28;20215;-79
2021/05/12 07:55:37;;;;;;;11.43;6.90;;;;;;;14.22;100.00;100254.84;4981745;28;20221;-76
2021/05/12 07:58:06;;;;;;;9.90;6.43;;;;;;;13.91;100.00;100258.47;5006418;28;20255;-75
2021/05/12 08:00:34;;;;;;;10.27;6.57;;;;;;;14.22;100.00;100254.06;4989575;28;20254;-76
2021/05/12 08:03:02;;;;;;;12.23;7.07;;;;;;;14.38;100.00;100254.22;5005373;28;20591;-77
2021/05/12 08:05:30;;;;;;;10.83;6.73;;;;;;;14.18;100.00;100267.50;5008651;28;20224;-76
2021/05/12 08:07:55;;;;;;;11.03;6.60;;;;;;;14.32;100.00;100265.56;5010009;28;20244;-73
2021/05/12 08:10:21;;;;;;;10.90;6.90;;;;;;;14.18;100.00;100263.97;4993672;28;20201;-78
2021/05/12 08:12:49;;;;;;;15.37;6.53;;;;;;;14.01;100.00;100269.19;5003693;28;20243;-76
2021/05/12 08:15:15;;;;;;;8.77;6.27;;;;;;;13.90;100.00;100262.34;5005080;28;20227;-78
2021/05/12 08:17:40;;;;;;;11.63;6.47;;;;;;;14.16;100.00;100266.22;5005671;28;20185;-76
2021/05/12 08:20:11;;;;;;;11.53;6.43;;;;;;;13.99;100.00;100265.97;4975834;28;20217;-73
2021/05/12 08:22:41;;;;;;;12.07;6.50;;;;;;;14.27;100.00;100269.22;4994147;28;20201;-77
2021/05/12 08:25:10;;;;;;;10.30;5.80;;;;;;;14.27;100.00;100269.22;4987622;28;20189;-76
2021/05/12 08:27:36;;;;;;;10.27;6.20;;;;;;;14.47;100.00;100278.88;4991728;28;20598;-77
2021/05/12 08:30:03;;;;;;;9.77;5.97;;;;;;;14.55;100.00;100268.06;5003637;28;20205;-78
2021/05/12 08:32:35;;;;;;;10.20;5.60;;;;;;;14.56;100.00;100272.41;4977325;28;20225;-78
2021/05/12 08:35:00;;;;;;;9.07;5.37;;;;;;;14.28;100.00;100270.84;4974491;28;20197;-78
2021/05/12 08:37:28;;;;;;;8.97;5.40;;;;;;;14.38;100.00;100273.34;4987281;28;20293;-78
2021/05/12 08:39:56;;;;;;;7.73;5.40;;;;;;;14.22;100.00;100273.19;4972223;28;20230;-77
2021/05/12 08:42:24;;;;;;;9.30;5.80;;;;;;;14.08;100.00;100270.44;4988053;28;20251;-77
2021/05/12 08:44:50;;;;;;;8.97;5.50;;;;;;;14.51;100.00;100269.78;4986372;28;20702;-77
2021/05/12 08:47:16;;;;;;;8.37;5.03;;;;;;;14.41;100.00;100269.19;4992584;28;20248;-78
2021/05/12 08:49:44;;;;;;;7.30;5.27;;;;;;;14.32;100.00;100263.66;5008607;28;20239;-77
2021/05/12 08:52:10;;;;;;;7.90;5.30;;;;;;;14.40;100.00;100268.38;5011066;28;20299;-78
2021/05/12 08:54:39;;;;;;;5.77;4.53;;;;;;;14.39;100.00;100272.22;4978985;28;20181;-77
2021/05/12 08:57:05;;;;;;;6.77;5.00;;;;;;;14.57;100.00;100265.81;4993697;28;20296;-78
2021/05/12 08:59:30;;;;;;;8.00;5.60;;;;;;;14.60;100.00;100267.94;5010402;28;20240;-78
2021/05/12 09:01:56;;;;;;;7.33;5.47;;;;;;;14.45;100.00;100272.91;5010287;28;20248;-79
2021/05/12 09:04:22;;;;;;;6.63;4.50;;;;;;;14.63;100.00;100273.63;4991208;28;20749;-77
2021/05/12 09:06:50;;;;;;;6.77;5.17;;;;;;;14.76;100.00;100271.94;5010491;28;20228;-77
2021/05/12 09:09:16;;;;;;;7.17;4.73;;;;;;;15.24;100.00;100274.63;4993863;28;20233;-78
2021/05/12 09:11:41;;;;;;;6.23;4.40;;;;;;;14.99;100.00;100265.38;4978879;28;20228;-79
2021/05/12 09:14:36;;;;;;;6.30;4.17;;;;;;;14.76;100.00;100266.47;4994247;28;20208;-78
2021/05/12 09:17:04;;;;;;;6.77;4.33;;;;;;;14.82;100.00;100273.44;4995511;28;20257;-78
2021/05/12 09:19:29;;;;;;;5.83;4.20;;;;;;;14.56;100.00;100271.59;4993541;28;20200;-78
2021/05/12 09:22:02;;;;;;;5.37;4.43;;;;;;;14.26;100.00;100283.97;4994644;28;20221;-78
2021/05/12 09:24:37;;;;;;;8.52;4.78;;;;;;;14.09;100.00;100268.53;4999160;28;20188;-78
2021/05/12 09:27:09;;;;;;;9.33;4.77;;;;;;;14.00;100.00;100276.59;4993424;28;20236;-77
2021/05/12 09:29:40;;;;;;;7.50;4.63;;;;;;;14.12;100.00;100265.19;4976821;28;20336;-78
2021/05/12 09:32:12;;;;;;;8.10;4.60;;;;;;;14.50;100.00;100273.63;4960520;28;20291;-76
2021/05/12 09:34:56;;;;;;;7.22;4.40;;;;;;;14.57;100.00;100273.22;5009853;28;20634;-78
2021/05/12 09:37:31;;;;;;;5.93;4.03;;;;;;;14.80;100.00;100272.97;4996860;28;20229;-77
2021/05/12 09:40:01;;;;;;;6.37;3.90;;;;;;;15.09;100.00;100272.22;4997887;28;20200;-77
2021/05/12 09:42:28;;;;;;;6.57;4.30;;;;;;;15.42;100.00;100276.34;4979050;28;20229;-77
2021/05/12 09:45:17;;;;;;;5.70;4.00;;;;;;;15.43;100.00;100278.75;4994136;28;20200;-75
2021/05/12 09:47:48;;;;;;;5.90;4.05;;;;;;;16.20;100.00;100267.06;4985235;28;20224;-78
2021/05/12 09:50:25;;;;;;;5.88;3.75;;;;;;;16.25;100.00;100273.19;4962078;28;20217;-77
2021/05/12 09:52:57;;;;;;;6.43;4.20;;;;;;;16.08;100.00;100269.59;5010224;28;20188;-78
2021/05/12 09:55:44;;;;;;;5.88;3.65;;;;;;;16.42;100.00;100275.19;4992193;28;20229;-77
2021/05/12 09:58:12;;;;;;;4.95;3.40;;;;;;;15.85;100.00;100268.03;4998014;28;20203;-77
2021/05/12 10:00:39;;;;;;;5.93;3.67;;;;;;;15.93;100.00;100272.75;5004703;28;20761;-78
2021/05/12 10:03:09;;;;;;;4.97;3.55;;;;;;;15.28;100.00;100275.59;4985650;28;20263;-77
2021/05/12 10:06:02;;;;;;;4.43;3.22;;;;;;;15.54;100.00;100274.63;4959815;28;20602;-76
2021/05/12 10:08:30;;;;;;;4.72;3.33;;;;;;;16.01;100.00;100282.94;4997467;28;20208;-78
2021/05/12 10:11:03;;;;;;;4.10;3.50;;;;;;;15.81;100.00;100274.47;5012613;28;20217;-77
2021/05/12 10:13:32;;;;;;;5.97;3.47;;;;;;;15.14;100.00;100279.53;4980701;28;20193;-77
2021/05/12 10:15:58;;;;;;;7.20;3.37;;;;;;;15.35;100.00;100284.19;4995185;28;20259;-77
2021/05/12 10:18:23;;;;;;;5.55;3.78;;;;;;;15.12;100.00;100282.53;4996127;28;20280;-78
2021/05/12 10:20:58;;;;;;;5.50;4.22;;;;;;;14.93;100.00;100293.97;4996834;28;20233;-78
2021/05/12 10:23:25;;;;;;;4.27;3.87;;;;;;;14.73;100.00;100291.72;4985300;28;20196;-80
2021/05/12 10:25:50;;;;;;;4.90;4.40;;;;;;;14.72;100.00;100293.63;5026364;28;20290;-77
2021/05/12 10:28:21;;;;;;;5.00;4.50;;;;;;;14.67;100.00;100290.22;5034575;28;20282;-79
2021/05/12 10:30:52;;;;;;;5.43;4.37;;;;;;;14.76;100.00;100291.06;5002267;28;20685;-78
2021/05/12 10:33:46;;;;;;;5.60;5.00;;;;;;;14.90;100.00;100291.84;5018556;28;20194;-79
2021/05/12 10:36:16;;;;;;;5.00;4.50;;;;;;;14.89;100.00;100292.94;5020004;28;20228;-79
2021/05/12 10:38:45;;;;;;;6.53;4.53;;;;;;;14.92;100.00;100292.34;5019139;28;20188;-78
2021/05/12 10:41:39;;;;;;;4.90;4.30;;;;;;;15.46;100.00;100293.75;5034593;28;20258;-78
2021/05/12 10:44:15;;;;;;;5.72;4.40;;;;;;;15.32;100.00;100295.75;5010259;28;20746;-78
2021/05/12 10:47:05;;;;;;;4.57;3.90;;;;;;;15.02;100.00;100292.94;5008605;28;20224;-77
2021/05/12 10:49:36;;;;;;;6.93;4.40;;;;;;;15.29;100.00;100299.13;5023909;28;20220;-77
2021/05/12 10:52:06;;;;;;;7.60;4.47;;;;;;;15.60;100.00;100297.22;5017308;28;20227;-79
2021/05/12 10:54:37;;;;;;;5.45;4.18;;;;;;;15.28;100.00;100313.91;5004289;28;20162;-80
2021/05/12 10:57:03;;;;;;;7.47;4.53;;;;;;;14.82;100.00;100304.34;5036386;28;20232;-79
2021/05/12 10:59:29;;;;;;;5.23;4.30;;;;;;;14.90;100.00;100306.31;5016552;28;20624;-78
2021/05/12 11:01:57;;;;;;;5.15;4.43;;;;;;;15.00;100.00;100306.91;5018559;28;20220;-79
2021/05/12 11:04:25;;;;;;;7.00;4.97;;;;;;;14.79;100.00;100315.88;5019152;28;20185;-78
2021/05/12 11:06:51;;;;;;;7.43;4.95;;;;;;;14.78;100.00;100303.34;5003293;28;20236;-79
2021/05/12 11:09:17;;;;;;;6.90;5.03;;;;;;;15.05;100.00;100303.22;5036804;28;20281;-78
2021/05/12 11:11:43;;;;;;;7.17;4.43;;;;;;;15.42;100.00;100303.72;5031513;28;20231;-78
2021/05/12 11:14:58;;;;;;;8.20;5.10;;;;;;;16.16;100.00;100294.25;5021554;28;20252;-77
2021/05/12 11:17:41;;;;;;;4.90;3.60;;;;;;;16.93;100.00;100290.56;4930274;29;20229;-78
2021/05/12 11:20:15;;;;;;;7.77;3.87;;;;;;;16.94;100.00;100289.47;4957393;28;20206;-77
2021/05/12 11:33:43;;;;;;;5.20;3.40;;;;;;;15.86;100.00;100305.25;5029157;28;20179;-77